KIRK/IRK METAR and TAF weather

Enter ICAO airport designator
Station Type Date Time Source
KIRK METAR 2019/12/10 05:55 UTC NOAA

KIRK 100555Z AUTO 27009KT 10SM CLR M08/M13 A3013 RMK AO2 SLP218 T10831128 11050 21083 400891083 51032 $


Station Type Date Time Source
KIRK Decoded METAR 2019/12/10 05:55 UTC NOAA

KIRKSVILLE REGIONAL AIRPORT , MO, United States (KIRK) 40-06N 092-33W 293M
Dec 10, 2019 - 12:55 AM EST / 2019.12.10 0555 UTC
Wind: from the W (270 degrees) at 10 MPH (9 KT):0
Visibility: 10 mile(s):0
Sky conditions: clear
Temperature: 17.1 F (-8.3 C)
Windchill: 5 F (-15 C):1
Dew Point: 9.0 F (-12.8 C)
Relative Humidity: 69%
Pressure (altimeter): 30.13 in. Hg (1020 hPa)
Pressure tendency: 0.09 inches (3.2 hPa) higher than three hours ago
ob: KIRK 100555Z AUTO 27009KT 10SM CLR M08/M13 A3013 RMK AO2 SLP218 T10831128 11050 21083 400891083 51032
cycle: 6

Station Type Date Time Source
KIRK TAF UTC NOAA

Error!

Example: see airport list